createdAt,value
2022-09-21T00:01:40.095Z,74.57
2022-09-21T00:16:42.229Z,71.56
2022-09-21T00:31:43.768Z,79.77
2022-09-21T00:46:46.520Z,78.95
2022-09-21T01:01:48.076Z,86.97
2022-09-21T01:16:49.530Z,80.54
2022-09-21T01:32:11.289Z,86.17
2022-09-21T01:47:14.143Z,86.96
2022-09-21T02:02:19.746Z,86.35
2022-09-21T02:17:21.271Z,87.79
2022-09-21T02:32:23.766Z,91.22
2022-09-21T02:47:35.659Z,89.48
2022-09-21T03:02:41.215Z,90.92
2022-09-21T03:17:42.708Z,89.00
2022-09-21T03:32:44.182Z,85.85
2022-09-21T03:47:45.649Z,87.93
2022-09-21T04:02:47.541Z,89.24
2022-09-21T04:17:52.556Z,87.31
2022-09-21T04:32:54.006Z,87.09
2022-09-21T04:47:55.464Z,79.14
2022-09-21T05:02:56.933Z,71.74
2022-09-21T05:17:58.393Z,67.07
2022-09-21T05:33:03.710Z,60.81
2022-09-21T05:48:05.311Z,57.22
2022-09-21T06:03:25.291Z,63.16
2022-09-21T06:18:26.751Z,60.14
2022-09-21T06:33:28.270Z,51.54
2022-09-21T06:48:30.560Z,53.69
2022-09-21T07:03:32.206Z,46.93
2022-09-21T07:18:42.665Z,53.62
2022-09-21T07:33:47.164Z,58.69
2022-09-21T07:48:48.667Z,57.25
2022-09-21T08:03:54.119Z,57.88
2022-09-21T08:18:55.630Z,51.94
2022-09-21T08:33:57.764Z,54.22
2022-09-21T08:49:03.863Z,53.73
2022-09-21T09:04:24.255Z,53.00
2022-09-21T09:19:48.675Z,54.27
2022-09-21T09:34:55.887Z,55.85
2022-09-21T09:50:06.416Z,50.35
2022-09-21T10:05:18.640Z,48.80
2022-09-21T10:20:22.814Z,49.54
2022-09-21T10:35:25.224Z,45.98
2022-09-21T10:50:26.721Z,41.22
2022-09-21T11:05:32.253Z,48.95
2022-09-21T11:20:39.384Z,42.49
2022-09-21T11:35:43.497Z,46.80
2022-09-21T11:50:53.941Z,45.44
2022-09-21T12:06:04.759Z,52.58
2022-09-21T12:21:38.548Z,56.87
2022-09-21T12:36:42.882Z,56.92
2022-09-21T12:51:49.011Z,55.51
2022-09-21T13:07:09.322Z,54.44
2022-09-21T13:22:21.942Z,50.79
2022-09-21T13:37:27.638Z,53.78
2022-09-21T13:52:32.839Z,52.54
2022-09-21T14:07:34.923Z,50.46
2022-09-21T14:22:38.265Z,50.37
2022-09-21T14:37:46.664Z,53.27
2022-09-21T14:52:48.261Z,52.29
2022-09-21T15:08:11.287Z,55.61
2022-09-21T15:23:18.888Z,57.98
2022-09-21T15:38:27.703Z,58.18
2022-09-21T15:53:31.908Z,58.59
2022-09-21T16:08:35.262Z,55.12
2022-09-21T16:23:39.436Z,57.08
2022-09-21T16:38:40.971Z,62.10
2022-09-21T16:53:42.649Z,64.76
2022-09-21T17:08:44.795Z,65.45
2022-09-21T17:23:46.313Z,70.48
2022-09-21T17:38:47.842Z,72.04
2022-09-21T17:53:49.370Z,73.01
2022-09-21T18:08:50.936Z,70.88
2022-09-21T18:24:14.859Z,75.38
2022-09-21T18:39:22.399Z,75.42
2022-09-21T18:54:27.265Z,79.30
2022-09-21T19:09:34.690Z,80.12
2022-09-21T19:24:58.463Z,80.12
2022-09-21T19:40:00.141Z,82.09
2022-09-21T19:55:20.876Z,86.25
2022-09-21T20:10:42.101Z,87.65
2022-09-21T20:25:52.540Z,85.32
2022-09-21T20:40:54.087Z,82.37
2022-09-21T20:55:59.011Z,83.72
2022-09-21T21:11:00.704Z,80.45
2022-09-21T21:26:05.228Z,85.65
2022-09-21T21:41:07.504Z,85.81
2022-09-21T21:56:10.127Z,87.98
2022-09-21T22:16:14.826Z,87.98
2022-09-21T22:31:17.593Z,86.75
2022-09-21T22:46:19.621Z,86.61
2022-09-21T23:01:31.400Z,84.97
2022-09-21T23:16:32.978Z,85.32
2022-09-21T23:31:34.518Z,87.37
2022-09-21T23:46:37.406Z,84.06
